Huvudsida
METAR-TAF:

METAR-TAF

Flygplatser :

Grazzanise, Italien

latitud: 41-03N, longitud: 014-04E, höjd: 9 m

Aktuellt väderrapport

Denna rapport gjordes för 39 minuter sedan, klockan 20:55 UTC
Vind 2 kt från nordost
Temperatur 9°C
Fuktighet 93%
Tryck 1019 hPa
Sikt: 5000 m
Spridda moln på en höjd av 1800 ft
Brutna moln på en höjd av 6000 ft
fuktdis

METAR: LIRM 262055Z 04002KT 5000 BR SCT018 BKN060 09/08 Q1019 RMK OVC VIS MIN 5000 WIND THR06 03002KT WHT

Tid: 22:34 (21:34 UTC)

Väderprognos

Denna rapport gjordes för 58 minuter sedan, klockan 20:36 UTC
Prognos gäller från 26 kl. 21 UTC till 27 kl. 06 UTC
Vind 3 kt varierande vindriktning
Sikt: 5000 m
Spridda moln på en höjd av 2000 ft
Spridda moln på en höjd av 6000 ft
fuktdis
Temporärt
från 26 kl. 23 UTC till 27 kl. 06 UTC
Sikt: 1500 m
Spridda moln på en höjd av 1000 ft
fuktdis

TAF: LIRM 262036Z 2621/2706 VRB03KT 5000 BR SCT020 SCT060 TEMPO 2623/2706 1500 BR SCT010

Aktuella väderrapporter och prognoser från 4000 flygplatser (METAR- och TAF-rapporter).

De tillgängliga stationerna syns som gula och röda prickar på kartan.

För musen över prickarna för att se namnen på stationerna.

Klicka sedan för att få väderrapporter och prognoser.

För att ändra kartan: Klicka på de gröna knapparna med ett svart kors på för att zooma in; den gröna knappen med ett streck på för att zooma ut; eller på de gröna pilarna för angränsande kartor.


METAR-TAF: